sensor_id;sensor_type;location;lat;lon;timestamp;P1;durP1;ratioP1;P2;durP2;ratioP2
53261;SDS011;39658;51.090;-1.786;2024-03-08T00:01:35;67.35;;;22.27;;
53261;SDS011;39658;51.090;-1.786;2024-03-08T00:04:01;60.85;;;18.90;;
53261;SDS011;39658;51.090;-1.786;2024-03-08T00:06:28;58.13;;;20.38;;
53261;SDS011;39658;51.090;-1.786;2024-03-08T00:08:55;69.13;;;22.02;;
53261;SDS011;39658;51.090;-1.786;2024-03-08T00:11:22;64.53;;;21.63;;
53261;SDS011;39658;51.090;-1.786;2024-03-08T00:13:51;70.72;;;21.63;;
53261;SDS011;39658;51.090;-1.786;2024-03-08T00:16:19;66.95;;;21.80;;
53261;SDS011;39658;51.090;-1.786;2024-03-08T00:18:48;70.97;;;20.45;;
53261;SDS011;39658;51.090;-1.786;2024-03-08T00:21:15;61.92;;;19.30;;
53261;SDS011;39658;51.090;-1.786;2024-03-08T00:23:41;55.95;;;19.77;;
53261;SDS011;39658;51.090;-1.786;2024-03-08T00:26:08;64.95;;;20.77;;
53261;SDS011;39658;51.090;-1.786;2024-03-08T00:28:35;72.80;;;23.58;;
53261;SDS011;39658;51.090;-1.786;2024-03-08T00:31:02;68.47;;;23.80;;
53261;SDS011;39658;51.090;-1.786;2024-03-08T00:33:30;66.18;;;22.23;;
53261;SDS011;39658;51.090;-1.786;2024-03-08T00:35:57;71.57;;;21.35;;
53261;SDS011;39658;51.090;-1.786;2024-03-08T00:38:24;70.53;;;23.80;;
53261;SDS011;39658;51.090;-1.786;2024-03-08T00:40:51;67.68;;;22.05;;
53261;SDS011;39658;51.090;-1.786;2024-03-08T00:43:17;60.15;;;20.17;;
53261;SDS011;39658;51.090;-1.786;2024-03-08T00:45:44;66.03;;;21.98;;
53261;SDS011;39658;51.090;-1.786;2024-03-08T00:48:11;68.75;;;21.55;;
53261;SDS011;39658;51.090;-1.786;2024-03-08T00:50:39;59.92;;;20.13;;
53261;SDS011;39658;51.090;-1.786;2024-03-08T00:53:06;68.38;;;23.27;;
53261;SDS011;39658;51.090;-1.786;2024-03-08T00:55:32;58.60;;;20.88;;
53261;SDS011;39658;51.090;-1.786;2024-03-08T00:58:00;78.80;;;23.25;;
53261;SDS011;39658;51.090;-1.786;2024-03-08T01:00:27;56.83;;;20.83;;
53261;SDS011;39658;51.090;-1.786;2024-03-08T01:02:53;72.85;;;22.88;;
53261;SDS011;39658;51.090;-1.786;2024-03-08T01:05:20;76.25;;;22.80;;
53261;SDS011;39658;51.090;-1.786;2024-03-08T01:07:50;71.72;;;24.35;;
53261;SDS011;39658;51.090;-1.786;2024-03-08T01:10:17;81.90;;;23.98;;
53261;SDS011;39658;51.090;-1.786;2024-03-08T01:12:43;76.60;;;22.42;;
53261;SDS011;39658;51.090;-1.786;2024-03-08T01:15:10;66.90;;;20.83;;
53261;SDS011;39658;51.090;-1.786;2024-03-08T01:17:37;64.03;;;22.17;;
53261;SDS011;39658;51.090;-1.786;2024-03-08T01:20:04;80.82;;;25.10;;
53261;SDS011;39658;51.090;-1.786;2024-03-08T01:22:32;69.28;;;20.15;;
53261;SDS011;39658;51.090;-1.786;2024-03-08T01:25:00;68.53;;;22.05;;
53261;SDS011;39658;51.090;-1.786;2024-03-08T01:27:29;63.08;;;22.70;;
53261;SDS011;39658;51.090;-1.786;2024-03-08T01:29:56;68.13;;;23.10;;
53261;SDS011;39658;51.090;-1.786;2024-03-08T01:32:24;66.82;;;22.63;;
53261;SDS011;39658;51.090;-1.786;2024-03-08T01:34:51;73.70;;;24.30;;
53261;SDS011;39658;51.090;-1.786;2024-03-08T01:37:18;76.07;;;23.08;;
53261;SDS011;39658;51.090;-1.786;2024-03-08T01:39:45;71.85;;;22.58;;
53261;SDS011;39658;51.090;-1.786;2024-03-08T01:42:13;79.68;;;23.30;;
53261;SDS011;39658;51.090;-1.786;2024-03-08T01:47:09;75.35;;;23.23;;
53261;SDS011;39658;51.090;-1.786;2024-03-08T01:49:36;84.75;;;24.67;;
53261;SDS011;39658;51.090;-1.786;2024-03-08T01:52:04;76.10;;;21.33;;
53261;SDS011;39658;51.090;-1.786;2024-03-08T01:54:31;79.63;;;23.77;;
53261;SDS011;39658;51.090;-1.786;2024-03-08T01:56:58;69.35;;;21.00;;
53261;SDS011;39658;51.090;-1.786;2024-03-08T01:59:27;81.95;;;26.77;;
53261;SDS011;39658;51.090;-1.786;2024-03-08T02:01:54;68.93;;;21.10;;
53261;SDS011;39658;51.090;-1.786;2024-03-08T02:04:22;76.50;;;24.33;;
53261;SDS011;39658;51.090;-1.786;2024-03-08T02:06:49;71.05;;;23.20;;
53261;SDS011;39658;51.090;-1.786;2024-03-08T02:09:16;74.60;;;21.27;;
53261;SDS011;39658;51.090;-1.786;2024-03-08T02:11:43;81.90;;;24.63;;
53261;SDS011;39658;51.090;-1.786;2024-03-08T02:14:11;85.13;;;25.70;;
53261;SDS011;39658;51.090;-1.786;2024-03-08T02:16:39;78.60;;;25.10;;
53261;SDS011;39658;51.090;-1.786;2024-03-08T02:19:06;75.65;;;25.20;;
53261;SDS011;39658;51.090;-1.786;2024-03-08T02:21:36;79.93;;;23.88;;
53261;SDS011;39658;51.090;-1.786;2024-03-08T02:24:03;74.90;;;24.42;;
53261;SDS011;39658;51.090;-1.786;2024-03-08T02:26:31;81.38;;;24.38;;
53261;SDS011;39658;51.090;-1.786;2024-03-08T02:28:57;78.78;;;25.17;;
53261;SDS011;39658;51.090;-1.786;2024-03-08T02:31:24;77.60;;;22.80;;
53261;SDS011;39658;51.090;-1.786;2024-03-08T02:33:51;73.22;;;22.13;;
53261;SDS011;39658;51.090;-1.786;2024-03-08T02:36:18;80.90;;;23.10;;
53261;SDS011;39658;51.090;-1.786;2024-03-08T02:38:46;88.85;;;25.67;;
53261;SDS011;39658;51.090;-1.786;2024-03-08T02:41:13;74.63;;;22.80;;
53261;SDS011;39658;51.090;-1.786;2024-03-08T02:43:39;86.03;;;27.45;;
53261;SDS011;39658;51.090;-1.786;2024-03-08T02:46:06;85.72;;;24.85;;
53261;SDS011;39658;51.090;-1.786;2024-03-08T02:48:33;78.00;;;25.10;;
53261;SDS011;39658;51.090;-1.786;2024-03-08T02:51:00;79.15;;;24.92;;
53261;SDS011;39658;51.090;-1.786;2024-03-08T02:53:27;88.82;;;27.08;;
53261;SDS011;39658;51.090;-1.786;2024-03-08T02:55:55;90.22;;;27.23;;
53261;SDS011;39658;51.090;-1.786;2024-03-08T02:58:22;80.65;;;27.02;;
53261;SDS011;39658;51.090;-1.786;2024-03-08T03:00:49;64.53;;;23.77;;
53261;SDS011;39658;51.090;-1.786;2024-03-08T03:03:16;92.35;;;24.35;;
53261;SDS011;39658;51.090;-1.786;2024-03-08T03:05:42;76.78;;;23.63;;
53261;SDS011;39658;51.090;-1.786;2024-03-08T03:08:09;74.18;;;24.00;;
53261;SDS011;39658;51.090;-1.786;2024-03-08T03:10:37;91.10;;;26.05;;
53261;SDS011;39658;51.090;-1.786;2024-03-08T03:13:05;83.45;;;26.67;;
53261;SDS011;39658;51.090;-1.786;2024-03-08T03:15:31;76.05;;;23.50;;
53261;SDS011;39658;51.090;-1.786;2024-03-08T03:17:59;84.65;;;28.63;;
53261;SDS011;39658;51.090;-1.786;2024-03-08T03:20:26;81.13;;;25.08;;
53261;SDS011;39658;51.090;-1.786;2024-03-08T03:22:57;82.07;;;25.55;;
53261;SDS011;39658;51.090;-1.786;2024-03-08T03:25:26;88.65;;;25.92;;
53261;SDS011;39658;51.090;-1.786;2024-03-08T03:27:59;91.57;;;26.85;;
53261;SDS011;39658;51.090;-1.786;2024-03-08T03:30:27;82.97;;;23.85;;
53261;SDS011;39658;51.090;-1.786;2024-03-08T03:32:58;73.05;;;23.50;;
53261;SDS011;39658;51.090;-1.786;2024-03-08T03:35:25;82.03;;;25.08;;
53261;SDS011;39658;51.090;-1.786;2024-03-08T03:37:52;81.93;;;25.65;;
53261;SDS011;39658;51.090;-1.786;2024-03-08T03:40:30;72.30;;;22.70;;
53261;SDS011;39658;51.090;-1.786;2024-03-08T03:42:57;84.50;;;24.45;;
53261;SDS011;39658;51.090;-1.786;2024-03-08T03:45:24;86.32;;;24.33;;
53261;SDS011;39658;51.090;-1.786;2024-03-08T03:47:52;78.70;;;25.60;;
53261;SDS011;39658;51.090;-1.786;2024-03-08T03:50:19;78.07;;;24.30;;
53261;SDS011;39658;51.090;-1.786;2024-03-08T03:52:47;69.63;;;22.75;;
53261;SDS011;39658;51.090;-1.786;2024-03-08T03:55:14;91.03;;;26.75;;
53261;SDS011;39658;51.090;-1.786;2024-03-08T03:57:41;82.13;;;26.17;;
53261;SDS011;39658;51.090;-1.786;2024-03-08T04:00:11;94.85;;;25.70;;
53261;SDS011;39658;51.090;-1.786;2024-03-08T04:02:38;80.53;;;25.38;;
53261;SDS011;39658;51.090;-1.786;2024-03-08T04:05:08;88.22;;;25.38;;
53261;SDS011;39658;51.090;-1.786;2024-03-08T04:07:35;89.10;;;27.13;;
53261;SDS011;39658;51.090;-1.786;2024-03-08T04:10:02;85.63;;;26.75;;
53261;SDS011;39658;51.090;-1.786;2024-03-08T04:12:31;86.63;;;28.00;;
53261;SDS011;39658;51.090;-1.786;2024-03-08T04:14:58;78.53;;;23.90;;
53261;SDS011;39658;51.090;-1.786;2024-03-08T04:17:25;86.15;;;25.17;;
53261;SDS011;39658;51.090;-1.786;2024-03-08T04:19:52;94.45;;;29.15;;
53261;SDS011;39658;51.090;-1.786;2024-03-08T04:22:20;81.65;;;25.80;;
53261;SDS011;39658;51.090;-1.786;2024-03-08T04:24:47;86.20;;;24.63;;
53261;SDS011;39658;51.090;-1.786;2024-03-08T04:27:14;76.00;;;23.23;;
53261;SDS011;39658;51.090;-1.786;2024-03-08T04:29:41;91.80;;;27.83;;
53261;SDS011;39658;51.090;-1.786;2024-03-08T04:32:08;83.93;;;24.52;;
53261;SDS011;39658;51.090;-1.786;2024-03-08T04:34:36;85.85;;;25.17;;
53261;SDS011;39658;51.090;-1.786;2024-03-08T04:37:03;82.80;;;25.00;;
53261;SDS011;39658;51.090;-1.786;2024-03-08T04:39:31;70.57;;;21.85;;
53261;SDS011;39658;51.090;-1.786;2024-03-08T04:41:59;85.35;;;25.38;;
53261;SDS011;39658;51.090;-1.786;2024-03-08T04:44:29;78.47;;;24.65;;
53261;SDS011;39658;51.090;-1.786;2024-03-08T04:46:56;75.30;;;24.08;;
53261;SDS011;39658;51.090;-1.786;2024-03-08T04:49:23;85.05;;;25.27;;
53261;SDS011;39658;51.090;-1.786;2024-03-08T04:51:50;86.35;;;27.20;;
53261;SDS011;39658;51.090;-1.786;2024-03-08T04:54:16;76.72;;;23.60;;
53261;SDS011;39658;51.090;-1.786;2024-03-08T04:56:45;73.93;;;24.17;;
53261;SDS011;39658;51.090;-1.786;2024-03-08T04:59:12;72.00;;;21.75;;
53261;SDS011;39658;51.090;-1.786;2024-03-08T05:01:39;74.65;;;24.13;;
53261;SDS011;39658;51.090;-1.786;2024-03-08T05:04:05;81.20;;;26.40;;
53261;SDS011;39658;51.090;-1.786;2024-03-08T05:06:31;78.85;;;24.75;;
53261;SDS011;39658;51.090;-1.786;2024-03-08T05:08:58;86.70;;;24.17;;
53261;SDS011;39658;51.090;-1.786;2024-03-08T05:11:25;91.03;;;27.27;;
53261;SDS011;39658;51.090;-1.786;2024-03-08T05:13:53;82.97;;;25.48;;
53261;SDS011;39658;51.090;-1.786;2024-03-08T05:16:20;77.00;;;25.17;;
53261;SDS011;39658;51.090;-1.786;2024-03-08T05:18:49;77.32;;;22.98;;
53261;SDS011;39658;51.090;-1.786;2024-03-08T05:21:16;63.72;;;21.17;;
53261;SDS011;39658;51.090;-1.786;2024-03-08T05:23:45;79.72;;;25.65;;
53261;SDS011;39658;51.090;-1.786;2024-03-08T05:26:12;83.07;;;24.60;;
53261;SDS011;39658;51.090;-1.786;2024-03-08T05:28:40;84.97;;;23.63;;
53261;SDS011;39658;51.090;-1.786;2024-03-08T05:31:08;74.68;;;24.50;;
53261;SDS011;39658;51.090;-1.786;2024-03-08T05:33:35;64.50;;;22.85;;
53261;SDS011;39658;51.090;-1.786;2024-03-08T05:36:02;75.72;;;23.55;;
53261;SDS011;39658;51.090;-1.786;2024-03-08T05:38:29;62.17;;;20.83;;
53261;SDS011;39658;51.090;-1.786;2024-03-08T05:40:55;61.65;;;18.92;;
53261;SDS011;39658;51.090;-1.786;2024-03-08T05:43:22;74.38;;;23.67;;
53261;SDS011;39658;51.090;-1.786;2024-03-08T05:45:50;71.80;;;23.48;;
53261;SDS011;39658;51.090;-1.786;2024-03-08T05:48:18;87.78;;;25.55;;
53261;SDS011;39658;51.090;-1.786;2024-03-08T05:50:45;75.30;;;25.48;;
53261;SDS011;39658;51.090;-1.786;2024-03-08T05:53:12;69.30;;;19.63;;
53261;SDS011;39658;51.090;-1.786;2024-03-08T05:55:38;73.70;;;21.77;;
53261;SDS011;39658;51.090;-1.786;2024-03-08T05:58:05;76.75;;;23.05;;
53261;SDS011;39658;51.090;-1.786;2024-03-08T06:00:33;67.85;;;23.42;;
53261;SDS011;39658;51.090;-1.786;2024-03-08T06:03:01;71.63;;;21.92;;
53261;SDS011;39658;51.090;-1.786;2024-03-08T06:05:30;68.75;;;22.00;;
53261;SDS011;39658;51.090;-1.786;2024-03-08T06:07:57;68.45;;;21.40;;
53261;SDS011;39658;51.090;-1.786;2024-03-08T06:10:24;77.47;;;23.33;;
53261;SDS011;39658;51.090;-1.786;2024-03-08T06:12:50;74.30;;;22.17;;
53261;SDS011;39658;51.090;-1.786;2024-03-08T06:15:17;66.90;;;21.27;;
53261;SDS011;39658;51.090;-1.786;2024-03-08T06:17:46;65.07;;;22.35;;
53261;SDS011;39658;51.090;-1.786;2024-03-08T06:20:12;63.63;;;23.13;;
53261;SDS011;39658;51.090;-1.786;2024-03-08T06:22:41;75.45;;;24.00;;
53261;SDS011;39658;51.090;-1.786;2024-03-08T06:25:10;71.35;;;23.73;;
53261;SDS011;39658;51.090;-1.786;2024-03-08T06:27:39;71.63;;;22.83;;
53261;SDS011;39658;51.090;-1.786;2024-03-08T06:30:07;68.57;;;22.20;;
53261;SDS011;39658;51.090;-1.786;2024-03-08T06:32:35;65.78;;;22.20;;
53261;SDS011;39658;51.090;-1.786;2024-03-08T06:35:02;67.97;;;20.88;;
53261;SDS011;39658;51.090;-1.786;2024-03-08T06:37:31;78.82;;;22.83;;
53261;SDS011;39658;51.090;-1.786;2024-03-08T06:40:00;49.55;;;18.08;;
53261;SDS011;39658;51.090;-1.786;2024-03-08T06:42:28;61.92;;;20.73;;
53261;SDS011;39658;51.090;-1.786;2024-03-08T06:44:58;56.42;;;19.20;;
53261;SDS011;39658;51.090;-1.786;2024-03-08T06:47:29;67.43;;;22.15;;
53261;SDS011;39658;51.090;-1.786;2024-03-08T06:49:56;61.20;;;19.38;;
53261;SDS011;39658;51.090;-1.786;2024-03-08T06:52:23;51.53;;;17.08;;
53261;SDS011;39658;51.090;-1.786;2024-03-08T06:54:50;63.85;;;21.75;;
53261;SDS011;39658;51.090;-1.786;2024-03-08T06:57:19;66.90;;;22.63;;
53261;SDS011;39658;51.090;-1.786;2024-03-08T06:59:47;67.70;;;21.73;;
53261;SDS011;39658;51.090;-1.786;2024-03-08T07:02:14;54.80;;;19.48;;
53261;SDS011;39658;51.090;-1.786;2024-03-08T07:04:40;56.97;;;18.67;;
53261;SDS011;39658;51.090;-1.786;2024-03-08T07:07:07;68.00;;;21.70;;
53261;SDS011;39658;51.090;-1.786;2024-03-08T07:09:35;66.53;;;21.20;;
53261;SDS011;39658;51.090;-1.786;2024-03-08T07:12:01;68.75;;;21.83;;
53261;SDS011;39658;51.090;-1.786;2024-03-08T07:14:30;57.50;;;18.27;;
53261;SDS011;39658;51.090;-1.786;2024-03-08T07:16:57;55.22;;;18.60;;
53261;SDS011;39658;51.090;-1.786;2024-03-08T07:19:24;68.00;;;21.75;;
53261;SDS011;39658;51.090;-1.786;2024-03-08T07:21:50;59.60;;;21.75;;
53261;SDS011;39658;51.090;-1.786;2024-03-08T07:24:17;61.20;;;20.48;;
53261;SDS011;39658;51.090;-1.786;2024-03-08T07:27:04;55.95;;;19.95;;
53261;SDS011;39658;51.090;-1.786;2024-03-08T07:29:32;73.53;;;22.25;;
53261;SDS011;39658;51.090;-1.786;2024-03-08T07:32:00;61.45;;;19.67;;
53261;SDS011;39658;51.090;-1.786;2024-03-08T07:34:37;48.60;;;18.35;;
53261;SDS011;39658;51.090;-1.786;2024-03-08T07:37:05;48.28;;;17.45;;
53261;SDS011;39658;51.090;-1.786;2024-03-08T07:39:36;52.90;;;19.17;;
53261;SDS011;39658;51.090;-1.786;2024-03-08T07:42:03;59.08;;;21.23;;
53261;SDS011;39658;51.090;-1.786;2024-03-08T07:44:30;54.38;;;18.20;;
53261;SDS011;39658;51.090;-1.786;2024-03-08T07:46:59;44.33;;;16.63;;
53261;SDS011;39658;51.090;-1.786;2024-03-08T07:49:25;54.50;;;19.40;;
53261;SDS011;39658;51.090;-1.786;2024-03-08T07:51:52;52.38;;;18.38;;
53261;SDS011;39658;51.090;-1.786;2024-03-08T07:54:19;56.30;;;21.10;;
53261;SDS011;39658;51.090;-1.786;2024-03-08T07:56:46;54.90;;;18.95;;
53261;SDS011;39658;51.090;-1.786;2024-03-08T07:59:13;48.05;;;15.23;;
53261;SDS011;39658;51.090;-1.786;2024-03-08T08:01:41;57.53;;;20.98;;
53261;SDS011;39658;51.090;-1.786;2024-03-08T08:04:09;56.63;;;18.58;;
53261;SDS011;39658;51.090;-1.786;2024-03-08T08:06:37;56.35;;;19.15;;
53261;SDS011;39658;51.090;-1.786;2024-03-08T08:09:06;60.45;;;20.92;;
53261;SDS011;39658;51.090;-1.786;2024-03-08T08:11:39;40.13;;;15.20;;
53261;SDS011;39658;51.090;-1.786;2024-03-08T08:14:06;44.95;;;16.75;;
53261;SDS011;39658;51.090;-1.786;2024-03-08T08:16:34;51.20;;;20.27;;
53261;SDS011;39658;51.090;-1.786;2024-03-08T08:19:03;47.13;;;17.38;;
53261;SDS011;39658;51.090;-1.786;2024-03-08T08:21:32;57.90;;;18.67;;
53261;SDS011;39658;51.090;-1.786;2024-03-08T08:24:00;37.33;;;15.30;;
53261;SDS011;39658;51.090;-1.786;2024-03-08T08:26:28;45.63;;;17.27;;
53261;SDS011;39658;51.090;-1.786;2024-03-08T08:28:55;47.53;;;16.98;;
53261;SDS011;39658;51.090;-1.786;2024-03-08T08:31:21;52.03;;;18.80;;
53261;SDS011;39658;51.090;-1.786;2024-03-08T08:33:48;55.65;;;18.10;;
53261;SDS011;39658;51.090;-1.786;2024-03-08T08:36:16;45.92;;;17.33;;
53261;SDS011;39658;51.090;-1.786;2024-03-08T08:38:43;51.70;;;18.27;;
53261;SDS011;39658;51.090;-1.786;2024-03-08T08:41:10;54.85;;;19.48;;
53261;SDS011;39658;51.090;-1.786;2024-03-08T08:43:38;48.45;;;17.77;;
53261;SDS011;39658;51.090;-1.786;2024-03-08T08:46:04;44.30;;;16.02;;
53261;SDS011;39658;51.090;-1.786;2024-03-08T08:48:31;37.92;;;15.70;;
53261;SDS011;39658;51.090;-1.786;2024-03-08T08:50:58;35.28;;;13.55;;
53261;SDS011;39658;51.090;-1.786;2024-03-08T08:53:26;40.10;;;14.73;;
53261;SDS011;39658;51.090;-1.786;2024-03-08T08:55:54;47.03;;;18.58;;
53261;SDS011;39658;51.090;-1.786;2024-03-08T08:58:21;43.15;;;18.40;;
53261;SDS011;39658;51.090;-1.786;2024-03-08T09:00:48;42.22;;;16.48;;
53261;SDS011;39658;51.090;-1.786;2024-03-08T09:03:17;50.10;;;16.40;;
53261;SDS011;39658;51.090;-1.786;2024-03-08T09:05:44;48.53;;;16.00;;
53261;SDS011;39658;51.090;-1.786;2024-03-08T09:08:11;41.92;;;15.50;;
53261;SDS011;39658;51.090;-1.786;2024-03-08T09:10:40;36.00;;;13.05;;
53261;SDS011;39658;51.090;-1.786;2024-03-08T09:13:08;37.58;;;14.77;;
53261;SDS011;39658;51.090;-1.786;2024-03-08T09:15:35;41.55;;;15.45;;
53261;SDS011;39658;51.090;-1.786;2024-03-08T09:18:04;40.88;;;14.32;;
53261;SDS011;39658;51.090;-1.786;2024-03-08T09:20:31;30.00;;;12.27;;
53261;SDS011;39658;51.090;-1.786;2024-03-08T09:22:58;38.58;;;15.38;;
53261;SDS011;39658;51.090;-1.786;2024-03-08T09:25:25;39.53;;;15.82;;
53261;SDS011;39658;51.090;-1.786;2024-03-08T09:27:53;33.30;;;14.52;;
53261;SDS011;39658;51.090;-1.786;2024-03-08T09:30:20;42.10;;;15.70;;
53261;SDS011;39658;51.090;-1.786;2024-03-08T09:32:47;33.55;;;15.23;;
53261;SDS011;39658;51.090;-1.786;2024-03-08T09:35:16;32.38;;;13.15;;
53261;SDS011;39658;51.090;-1.786;2024-03-08T09:37:43;33.55;;;13.20;;
53261;SDS011;39658;51.090;-1.786;2024-03-08T09:40:12;33.92;;;14.13;;
53261;SDS011;39658;51.090;-1.786;2024-03-08T09:42:40;37.40;;;14.23;;
53261;SDS011;39658;51.090;-1.786;2024-03-08T09:45:09;41.10;;;16.48;;
53261;SDS011;39658;51.090;-1.786;2024-03-08T09:47:37;39.45;;;14.82;;
53261;SDS011;39658;51.090;-1.786;2024-03-08T09:50:07;44.88;;;17.15;;
53261;SDS011;39658;51.090;-1.786;2024-03-08T09:52:35;38.88;;;15.27;;
53261;SDS011;39658;51.090;-1.786;2024-03-08T09:55:04;39.38;;;15.95;;
53261;SDS011;39658;51.090;-1.786;2024-03-08T09:57:31;37.75;;;14.82;;
53261;SDS011;39658;51.090;-1.786;2024-03-08T09:59:59;40.58;;;16.20;;
53261;SDS011;39658;51.090;-1.786;2024-03-08T10:02:27;37.38;;;15.80;;
53261;SDS011;39658;51.090;-1.786;2024-03-08T10:04:54;35.58;;;15.13;;
53261;SDS011;39658;51.090;-1.786;2024-03-08T10:07:23;38.15;;;15.80;;
53261;SDS011;39658;51.090;-1.786;2024-03-08T10:09:51;34.42;;;15.20;;
53261;SDS011;39658;51.090;-1.786;2024-03-08T10:12:18;41.53;;;16.55;;
53261;SDS011;39658;51.090;-1.786;2024-03-08T10:14:45;38.90;;;15.85;;
53261;SDS011;39658;51.090;-1.786;2024-03-08T10:17:12;36.38;;;14.52;;
53261;SDS011;39658;51.090;-1.786;2024-03-08T10:19:40;38.92;;;16.45;;
53261;SDS011;39658;51.090;-1.786;2024-03-08T10:22:16;35.15;;;15.00;;
53261;SDS011;39658;51.090;-1.786;2024-03-08T10:24:44;32.97;;;15.45;;
53261;SDS011;39658;51.090;-1.786;2024-03-08T10:27:11;37.03;;;16.65;;
53261;SDS011;39658;51.090;-1.786;2024-03-08T10:29:38;35.00;;;15.50;;
53261;SDS011;39658;51.090;-1.786;2024-03-08T10:32:09;38.03;;;16.15;;
53261;SDS011;39658;51.090;-1.786;2024-03-08T10:34:37;36.90;;;15.30;;
53261;SDS011;39658;51.090;-1.786;2024-03-08T10:37:05;39.95;;;16.95;;
53261;SDS011;39658;51.090;-1.786;2024-03-08T10:39:37;32.72;;;14.93;;
53261;SDS011;39658;51.090;-1.786;2024-03-08T10:42:09;35.45;;;16.15;;
53261;SDS011;39658;51.090;-1.786;2024-03-08T10:44:46;36.78;;;16.23;;
53261;SDS011;39658;51.090;-1.786;2024-03-08T10:47:23;38.78;;;15.02;;
53261;SDS011;39658;51.090;-1.786;2024-03-08T10:49:57;37.05;;;15.70;;
53261;SDS011;39658;51.090;-1.786;2024-03-08T10:52:33;39.60;;;15.13;;
53261;SDS011;39658;51.090;-1.786;2024-03-08T10:55:02;31.80;;;14.45;;
53261;SDS011;39658;51.090;-1.786;2024-03-08T10:57:29;34.40;;;14.45;;
53261;SDS011;39658;51.090;-1.786;2024-03-08T10:59:56;38.25;;;14.20;;
53261;SDS011;39658;51.090;-1.786;2024-03-08T11:02:25;38.75;;;15.95;;
53261;SDS011;39658;51.090;-1.786;2024-03-08T11:04:54;32.67;;;13.68;;
53261;SDS011;39658;51.090;-1.786;2024-03-08T11:07:23;34.67;;;15.40;;
53261;SDS011;39658;51.090;-1.786;2024-03-08T11:09:54;33.05;;;14.10;;
53261;SDS011;39658;51.090;-1.786;2024-03-08T11:12:23;32.22;;;15.18;;
53261;SDS011;39658;51.090;-1.786;2024-03-08T11:14:51;32.55;;;14.73;;
53261;SDS011;39658;51.090;-1.786;2024-03-08T11:17:26;36.80;;;14.93;;
53261;SDS011;39658;51.090;-1.786;2024-03-08T11:20:08;35.10;;;13.60;;
53261;SDS011;39658;51.090;-1.786;2024-03-08T11:22:40;34.50;;;14.25;;
53261;SDS011;39658;51.090;-1.786;2024-03-08T11:25:30;35.50;;;14.55;;
53261;SDS011;39658;51.090;-1.786;2024-03-08T11:28:11;33.83;;;14.18;;
53261;SDS011;39658;51.090;-1.786;2024-03-08T11:30:42;33.20;;;12.63;;
53261;SDS011;39658;51.090;-1.786;2024-03-08T11:33:11;32.13;;;12.52;;
53261;SDS011;39658;51.090;-1.786;2024-03-08T11:35:38;30.70;;;13.20;;
53261;SDS011;39658;51.090;-1.786;2024-03-08T11:38:07;32.35;;;13.00;;
53261;SDS011;39658;51.090;-1.786;2024-03-08T11:40:36;25.33;;;11.25;;
53261;SDS011;39658;51.090;-1.786;2024-03-08T11:43:03;33.03;;;12.82;;
53261;SDS011;39658;51.090;-1.786;2024-03-08T11:45:32;33.95;;;13.63;;
53261;SDS011;39658;51.090;-1.786;2024-03-08T11:48:01;26.38;;;11.50;;
53261;SDS011;39658;51.090;-1.786;2024-03-08T11:50:30;28.02;;;12.95;;
53261;SDS011;39658;51.090;-1.786;2024-03-08T11:53:01;26.02;;;11.32;;
53261;SDS011;39658;51.090;-1.786;2024-03-08T11:55:29;29.52;;;12.77;;
53261;SDS011;39658;51.090;-1.786;2024-03-08T11:58:01;34.03;;;13.85;;
53261;SDS011;39658;51.090;-1.786;2024-03-08T12:00:29;29.55;;;12.75;;
53261;SDS011;39658;51.090;-1.786;2024-03-08T12:03:04;25.67;;;11.02;;
53261;SDS011;39658;51.090;-1.786;2024-03-08T12:05:32;24.52;;;11.20;;
53261;SDS011;39658;51.090;-1.786;2024-03-08T12:08:00;23.20;;;10.60;;
53261;SDS011;39658;51.090;-1.786;2024-03-08T12:10:27;26.27;;;11.70;;
53261;SDS011;39658;51.090;-1.786;2024-03-08T12:12:54;27.67;;;12.40;;
53261;SDS011;39658;51.090;-1.786;2024-03-08T12:15:26;27.40;;;11.30;;
53261;SDS011;39658;51.090;-1.786;2024-03-08T12:17:55;26.42;;;11.90;;
53261;SDS011;39658;51.090;-1.786;2024-03-08T12:20:23;29.17;;;12.40;;
53261;SDS011;39658;51.090;-1.786;2024-03-08T12:22:51;27.65;;;11.25;;
53261;SDS011;39658;51.090;-1.786;2024-03-08T12:25:18;29.05;;;12.82;;
53261;SDS011;39658;51.090;-1.786;2024-03-08T12:27:46;24.98;;;11.70;;
53261;SDS011;39658;51.090;-1.786;2024-03-08T12:30:17;24.05;;;10.60;;
53261;SDS011;39658;51.090;-1.786;2024-03-08T12:32:50;24.95;;;12.27;;
53261;SDS011;39658;51.090;-1.786;2024-03-08T12:35:19;25.13;;;10.80;;
53261;SDS011;39658;51.090;-1.786;2024-03-08T12:37:48;22.70;;;10.70;;
53261;SDS011;39658;51.090;-1.786;2024-03-08T12:40:16;24.33;;;10.48;;
53261;SDS011;39658;51.090;-1.786;2024-03-08T12:42:43;24.08;;;9.60;;
53261;SDS011;39658;51.090;-1.786;2024-03-08T12:45:12;32.17;;;11.43;;
53261;SDS011;39658;51.090;-1.786;2024-03-08T12:47:40;27.17;;;11.00;;
53261;SDS011;39658;51.090;-1.786;2024-03-08T12:50:10;28.88;;;12.32;;
53261;SDS011;39658;51.090;-1.786;2024-03-08T12:52:37;21.00;;;9.57;;
53261;SDS011;39658;51.090;-1.786;2024-03-08T12:55:04;24.70;;;10.40;;
53261;SDS011;39658;51.090;-1.786;2024-03-08T12:57:33;27.13;;;11.13;;
53261;SDS011;39658;51.090;-1.786;2024-03-08T13:00:03;24.20;;;10.73;;
53261;SDS011;39658;51.090;-1.786;2024-03-08T13:02:38;27.50;;;11.00;;
53261;SDS011;39658;51.090;-1.786;2024-03-08T13:05:05;23.00;;;9.18;;
53261;SDS011;39658;51.090;-1.786;2024-03-08T13:07:36;22.50;;;10.73;;
53261;SDS011;39658;51.090;-1.786;2024-03-08T13:10:04;26.13;;;10.80;;
53261;SDS011;39658;51.090;-1.786;2024-03-08T13:12:32;24.80;;;11.52;;
53261;SDS011;39658;51.090;-1.786;2024-03-08T13:15:00;26.25;;;10.95;;
53261;SDS011;39658;51.090;-1.786;2024-03-08T13:17:26;25.05;;;10.45;;
53261;SDS011;39658;51.090;-1.786;2024-03-08T13:19:54;25.27;;;10.13;;
53261;SDS011;39658;51.090;-1.786;2024-03-08T13:22:22;24.00;;;11.07;;
53261;SDS011;39658;51.090;-1.786;2024-03-08T13:24:51;25.80;;;11.65;;
53261;SDS011;39658;51.090;-1.786;2024-03-08T13:27:18;25.23;;;11.70;;
53261;SDS011;39658;51.090;-1.786;2024-03-08T13:29:48;24.23;;;11.43;;
53261;SDS011;39658;51.090;-1.786;2024-03-08T13:32:15;22.92;;;9.73;;
53261;SDS011;39658;51.090;-1.786;2024-03-08T13:34:45;26.58;;;11.18;;
53261;SDS011;39658;51.090;-1.786;2024-03-08T13:37:16;21.35;;;10.63;;
53261;SDS011;39658;51.090;-1.786;2024-03-08T13:39:42;24.52;;;10.13;;
53261;SDS011;39658;51.090;-1.786;2024-03-08T13:42:11;20.75;;;10.02;;
53261;SDS011;39658;51.090;-1.786;2024-03-08T13:44:43;25.75;;;11.95;;
53261;SDS011;39658;51.090;-1.786;2024-03-08T13:47:11;23.45;;;10.07;;
53261;SDS011;39658;51.090;-1.786;2024-03-08T13:49:38;21.30;;;10.85;;
53261;SDS011;39658;51.090;-1.786;2024-03-08T13:52:05;21.35;;;9.57;;
53261;SDS011;39658;51.090;-1.786;2024-03-08T13:54:33;26.70;;;11.93;;
53261;SDS011;39658;51.090;-1.786;2024-03-08T13:57:00;25.58;;;10.93;;
53261;SDS011;39658;51.090;-1.786;2024-03-08T13:59:30;28.38;;;11.65;;
53261;SDS011;39658;51.090;-1.786;2024-03-08T14:01:58;22.45;;;10.75;;
53261;SDS011;39658;51.090;-1.786;2024-03-08T14:04:26;21.88;;;10.02;;
53261;SDS011;39658;51.090;-1.786;2024-03-08T14:06:53;24.92;;;10.93;;
53261;SDS011;39658;51.090;-1.786;2024-03-08T14:09:22;23.17;;;10.23;;
53261;SDS011;39658;51.090;-1.786;2024-03-08T14:11:50;26.13;;;10.18;;
53261;SDS011;39658;51.090;-1.786;2024-03-08T14:14:19;19.05;;;9.05;;
53261;SDS011;39658;51.090;-1.786;2024-03-08T14:16:49;24.83;;;10.75;;